JAF54X HEGN-EBOS
Flight info
| Callsign | JAF54X |
|---|---|
| Flight time | 5h 13m |
| Altitude | 36000 |
| Route | BOTIX1B BOTIX V608 NABED T55 KUNKI P751 TAKRI N710 KIVIL L613 MMA P751 METRU UM872 LATAN DCT LUPAL DCT ROBOT/N0454F380 DCT EKMUR DCT RUPAX DCT ERITU DCT BELOV DCT ALBET DCT RESIA DCT ELMUR DCT BEGAR DCT GTQ N852 DIK/N0467F320 M624 BUB L608 DENUT |
| Aircraft | B38M/M-SDE1FGHILORVWXY/HB1 |
Departure
| Time | 2026-04-27 11:08 |
|---|---|
| Airport | Hurghada International Airport (HEGN) |
Arrival
| Time | 2026-04-27 16:21 |
|---|---|
| Airport | Ostend-Bruges International Airport (EBOS) |
| Time | Latitude | Longitude | Altitude | Speed | Heading |
|---|---|---|---|---|---|
| 2026-04-27 10:41 | 27.17779 | 33.80665 | 39 ft | 0 kts | 76° |
| 2026-04-27 10:58 | 27.17775 | 33.80650 | 39 ft | 4 kts | 78° |
| 2026-04-27 10:58 | 27.17772 | 33.80620 | 39 ft | 4 kts | 89° |
| 2026-04-27 10:58 | 27.17774 | 33.80590 | 39 ft | 4 kts | 104° |
| 2026-04-27 10:58 | 27.17780 | 33.80570 | 37 ft | 1 kts | 115° |
| 2026-04-27 10:59 | 27.17782 | 33.80567 | 38 ft | 0 kts | 115° |
| 2026-04-27 11:02 | 27.17780 | 33.80570 | 39 ft | 2 kts | 115° |
| 2026-04-27 11:02 | 27.17760 | 33.80583 | 39 ft | 4 kts | 179° |
| 2026-04-27 11:02 | 27.17720 | 33.80580 | 39 ft | 7 kts | 185° |
| 2026-04-27 11:02 | 27.17666 | 33.80578 | 37 ft | 9 kts | 170° |
| 2026-04-27 11:03 | 27.17601 | 33.80598 | 38 ft | 11 kts | 165° |
| 2026-04-27 11:03 | 27.17594 | 33.80600 | 38 ft | 11 kts | 165° |
| 2026-04-27 11:03 | 27.17570 | 33.80606 | 38 ft | 11 kts | 167° |
| 2026-04-27 11:04 | 27.17495 | 33.80593 | 38 ft | 12 kts | 236° |
| 2026-04-27 11:04 | 27.17473 | 33.80496 | 35 ft | 14 kts | 257° |
| 2026-04-27 11:04 | 27.17425 | 33.80407 | 37 ft | 14 kts | 195° |
| 2026-04-27 11:04 | 27.17322 | 33.80427 | 37 ft | 16 kts | 166° |
| 2026-04-27 11:05 | 27.17208 | 33.80461 | 36 ft | 18 kts | 167° |
| 2026-04-27 11:05 | 27.17085 | 33.80497 | 33 ft | 19 kts | 165° |
| 2026-04-27 11:05 | 27.16952 | 33.80536 | 35 ft | 20 kts | 166° |
| 2026-04-27 11:05 | 27.16809 | 33.80578 | 34 ft | 22 kts | 165° |
| 2026-04-27 11:06 | 27.16655 | 33.80624 | 33 ft | 24 kts | 165° |
| 2026-04-27 11:06 | 27.16491 | 33.80673 | 33 ft | 25 kts | 165° |
| 2026-04-27 11:06 | 27.16315 | 33.80725 | 31 ft | 27 kts | 165° |
| 2026-04-27 11:06 | 27.16200 | 33.80759 | 30 ft | 9 kts | 171° |
| 2026-04-27 11:07 | 27.16150 | 33.80717 | 29 ft | 11 kts | 253° |
| 2026-04-27 11:07 | 27.16141 | 33.80627 | 29 ft | 12 kts | 277° |
| 2026-04-27 11:07 | 27.16214 | 33.80584 | 30 ft | 17 kts | 344° |
| 2026-04-27 11:07 | 27.16516 | 33.80494 | 33 ft | 79 kts | 345° |
| 2026-04-27 11:08 | 27.17249 | 33.80279 | 36 ft | 136 kts | 345° |
| 2026-04-27 11:08 | 27.18271 | 33.79978 | 342 ft | 157 kts | 345° |
| 2026-04-27 11:08 | 27.19386 | 33.79626 | 962 ft | 167 kts | 341° |
| 2026-04-27 11:08 | 27.20462 | 33.79258 | 1846 ft | 165 kts | 339° |
| 2026-04-27 11:09 | 27.21640 | 33.78855 | 2224 ft | 190 kts | 338° |
| 2026-04-27 11:09 | 27.22978 | 33.78403 | 2731 ft | 212 kts | 339° |
| 2026-04-27 11:09 | 27.24468 | 33.77904 | 3303 ft | 232 kts | 339° |
| 2026-04-27 11:09 | 27.26067 | 33.77377 | 3981 ft | 247 kts | 339° |
| 2026-04-27 11:10 | 27.27735 | 33.76829 | 4942 ft | 251 kts | 339° |
| 2026-04-27 11:10 | 27.29434 | 33.76270 | 5873 ft | 257 kts | 339° |
| 2026-04-27 11:10 | 27.31087 | 33.75528 | 6789 ft | 255 kts | 321° |
| 2026-04-27 11:10 | 27.32287 | 33.74106 | 7589 ft | 254 kts | 297° |
| 2026-04-27 11:11 | 27.32838 | 33.72236 | 7881 ft | 253 kts | 274° |
| 2026-04-27 11:11 | 27.32610 | 33.70281 | 8026 ft | 256 kts | 254° |
| 2026-04-27 11:11 | 27.32075 | 33.68375 | 8854 ft | 255 kts | 255° |
| 2026-04-27 11:11 | 27.31536 | 33.66441 | 9657 ft | 262 kts | 255° |
| 2026-04-27 11:12 | 27.30978 | 33.64483 | 10454 ft | 267 kts | 255° |
| 2026-04-27 11:12 | 27.30384 | 33.62427 | 10815 ft | 287 kts | 254° |
| 2026-04-27 11:12 | 27.29740 | 33.60220 | 11113 ft | 307 kts | 254° |
| 2026-04-27 11:12 | 27.29048 | 33.57863 | 11411 ft | 327 kts | 254° |
| 2026-04-27 11:13 | 27.28315 | 33.55377 | 11771 ft | 342 kts | 254° |
| 2026-04-27 11:13 | 27.27553 | 33.52799 | 12320 ft | 349 kts | 254° |
| 2026-04-27 11:13 | 27.26788 | 33.50210 | 13069 ft | 351 kts | 254° |
| 2026-04-27 11:13 | 27.26015 | 33.47591 | 13707 ft | 355 kts | 254° |
| 2026-04-27 11:14 | 27.25234 | 33.44949 | 14283 ft | 358 kts | 254° |
| 2026-04-27 11:14 | 27.24447 | 33.42287 | 14875 ft | 360 kts | 254° |
| 2026-04-27 11:14 | 27.23654 | 33.39603 | 15471 ft | 363 kts | 254° |
| 2026-04-27 11:14 | 27.22854 | 33.36900 | 16051 ft | 366 kts | 254° |
| 2026-04-27 11:15 | 27.22099 | 33.34160 | 16586 ft | 367 kts | 261° |
| 2026-04-27 11:15 | 27.22012 | 33.31307 | 17132 ft | 368 kts | 276° |
| 2026-04-27 11:15 | 27.22203 | 33.28434 | 17771 ft | 370 kts | 274° |
| 2026-04-27 11:15 | 27.22398 | 33.25572 | 18316 ft | 374 kts | 274° |
| 2026-04-27 11:16 | 27.22614 | 33.22646 | 18754 ft | 377 kts | 275° |
| 2026-04-27 11:16 | 27.22844 | 33.19694 | 19272 ft | 380 kts | 275° |
| 2026-04-27 11:16 | 27.23083 | 33.16727 | 19732 ft | 383 kts | 275° |
| 2026-04-27 11:16 | 27.23327 | 33.13735 | 20224 ft | 386 kts | 275° |
| 2026-04-27 11:17 | 27.23572 | 33.10722 | 20670 ft | 389 kts | 275° |
| 2026-04-27 11:17 | 27.23819 | 33.07685 | 21146 ft | 391 kts | 275° |
| 2026-04-27 11:17 | 27.24067 | 33.04635 | 21609 ft | 394 kts | 275° |
| 2026-04-27 11:17 | 27.24315 | 33.01563 | 22054 ft | 396 kts | 275° |
| 2026-04-27 11:18 | 27.24564 | 32.98473 | 22495 ft | 399 kts | 275° |
| 2026-04-27 11:18 | 27.24815 | 32.95361 | 22919 ft | 401 kts | 275° |
| 2026-04-27 11:18 | 27.25067 | 32.92224 | 23374 ft | 404 kts | 275° |
| 2026-04-27 11:18 | 27.25319 | 32.89074 | 23774 ft | 406 kts | 275° |
| 2026-04-27 11:19 | 27.25571 | 32.85910 | 24140 ft | 408 kts | 275° |
| 2026-04-27 11:19 | 27.25824 | 32.82729 | 24578 ft | 407 kts | 275° |
| 2026-04-27 11:19 | 27.26076 | 32.79560 | 24985 ft | 408 kts | 275° |
| 2026-04-27 11:19 | 27.26328 | 32.76373 | 25363 ft | 410 kts | 275° |
| 2026-04-27 11:20 | 27.26580 | 32.73179 | 25719 ft | 411 kts | 275° |
| 2026-04-27 11:20 | 27.26832 | 32.69970 | 26082 ft | 413 kts | 275° |
| 2026-04-27 11:20 | 27.27085 | 32.66750 | 26432 ft | 414 kts | 275° |
| 2026-04-27 11:20 | 27.27337 | 32.63522 | 26776 ft | 415 kts | 275° |
| 2026-04-27 11:21 | 27.27587 | 32.60324 | 27108 ft | 417 kts | 275° |
| 2026-04-27 11:21 | 27.27833 | 32.57151 | 27363 ft | 420 kts | 275° |
| 2026-04-27 11:21 | 27.28094 | 32.53785 | 27713 ft | 421 kts | 275° |
| 2026-04-27 11:21 | 27.28347 | 32.50514 | 28163 ft | 419 kts | 275° |
| 2026-04-27 11:22 | 27.28598 | 32.47254 | 28663 ft | 416 kts | 274° |
| 2026-04-27 11:22 | 27.28846 | 32.44025 | 29199 ft | 413 kts | 274° |
| 2026-04-27 11:22 | 27.29092 | 32.40814 | 29728 ft | 410 kts | 274° |
| 2026-04-27 11:22 | 27.29335 | 32.37635 | 30222 ft | 407 kts | 274° |
| 2026-04-27 11:23 | 27.29576 | 32.34477 | 30639 ft | 404 kts | 274° |
| 2026-04-27 11:23 | 27.29833 | 32.31331 | 31009 ft | 403 kts | 277° |
| 2026-04-27 11:23 | 27.30632 | 32.28316 | 31399 ft | 405 kts | 293° |
| 2026-04-27 11:23 | 27.32159 | 32.25640 | 31810 ft | 408 kts | 301° |
| 2026-04-27 11:24 | 27.33844 | 32.23071 | 32146 ft | 407 kts | 301° |
| 2026-04-27 11:24 | 27.35541 | 32.20529 | 32517 ft | 406 kts | 301° |
| 2026-04-27 11:24 | 27.37246 | 32.18004 | 32893 ft | 404 kts | 301° |
| 2026-04-27 11:24 | 27.38950 | 32.15500 | 33281 ft | 403 kts | 301° |
| 2026-04-27 11:25 | 27.40655 | 32.13005 | 33640 ft | 401 kts | 301° |
| 2026-04-27 11:25 | 27.42347 | 32.10531 | 34001 ft | 399 kts | 301° |
| 2026-04-27 11:25 | 27.44036 | 32.08060 | 34288 ft | 397 kts | 301° |
| 2026-04-27 11:25 | 27.45721 | 32.05596 | 34559 ft | 396 kts | 301° |
| 2026-04-27 11:26 | 27.47400 | 32.03138 | 34838 ft | 396 kts | 301° |
| 2026-04-27 11:26 | 27.49081 | 32.00675 | 35053 ft | 396 kts | 301° |
| 2026-04-27 11:26 | 27.50757 | 31.98220 | 35273 ft | 395 kts | 301° |
| 2026-04-27 11:26 | 27.52432 | 31.95764 | 35524 ft | 394 kts | 301° |
| 2026-04-27 11:27 | 27.54079 | 31.93348 | 35756 ft | 393 kts | 301° |
| 2026-04-27 11:27 | 27.55746 | 31.90900 | 35958 ft | 393 kts | 301° |
| 2026-04-27 11:27 | 27.59068 | 31.86020 | 36003 ft | 391 kts | 301° |
| 2026-04-27 11:28 | 27.62369 | 31.81166 | 36014 ft | 390 kts | 301° |
| 2026-04-27 11:28 | 27.65671 | 31.76303 | 36023 ft | 391 kts | 301° |
| 2026-04-27 11:29 | 27.68974 | 31.71434 | 36029 ft | 391 kts | 301° |
| 2026-04-27 11:29 | 27.72274 | 31.66565 | 36024 ft | 391 kts | 301° |
| 2026-04-27 11:30 | 27.75576 | 31.61687 | 36033 ft | 391 kts | 301° |
| 2026-04-27 11:30 | 27.78872 | 31.56812 | 36034 ft | 391 kts | 301° |
| 2026-04-27 11:31 | 27.82167 | 31.51933 | 36041 ft | 391 kts | 301° |
| 2026-04-27 11:31 | 27.85459 | 31.47053 | 36033 ft | 390 kts | 301° |
| 2026-04-27 11:32 | 27.88750 | 31.42170 | 36061 ft | 391 kts | 301° |
| 2026-04-27 11:32 | 27.92056 | 31.37258 | 36044 ft | 393 kts | 301° |
| 2026-04-27 11:33 | 27.95364 | 31.32338 | 36039 ft | 393 kts | 301° |
| 2026-04-27 11:33 | 27.98647 | 31.27449 | 36038 ft | 393 kts | 301° |
| 2026-04-27 11:34 | 28.01955 | 31.22519 | 36044 ft | 393 kts | 302° |
| 2026-04-27 11:34 | 28.05268 | 31.17575 | 36043 ft | 395 kts | 302° |
| 2026-04-27 11:35 | 28.08406 | 31.12514 | 36051 ft | 392 kts | 298° |
| 2026-04-27 11:35 | 28.11428 | 31.07365 | 36038 ft | 392 kts | 299° |
| 2026-04-27 11:36 | 28.14464 | 31.02221 | 36036 ft | 392 kts | 299° |
| 2026-04-27 11:36 | 28.17499 | 30.97077 | 36036 ft | 392 kts | 299° |
| 2026-04-27 11:37 | 28.20533 | 30.91930 | 36036 ft | 392 kts | 299° |
| 2026-04-27 11:37 | 28.23543 | 30.86816 | 36037 ft | 392 kts | 299° |
| 2026-04-27 11:38 | 28.26570 | 30.81668 | 36036 ft | 392 kts | 299° |
| 2026-04-27 11:38 | 28.29596 | 30.76514 | 36039 ft | 392 kts | 299° |
| 2026-04-27 11:39 | 28.32628 | 30.71345 | 36033 ft | 395 kts | 299° |
| 2026-04-27 11:39 | 28.35669 | 30.66153 | 36033 ft | 395 kts | 299° |
| 2026-04-27 11:40 | 28.38713 | 30.60951 | 36035 ft | 395 kts | 299° |
| 2026-04-27 11:40 | 28.41755 | 30.55745 | 36033 ft | 395 kts | 299° |
| 2026-04-27 11:41 | 28.44793 | 30.50539 | 36036 ft | 395 kts | 299° |
| 2026-04-27 11:41 | 28.47831 | 30.45329 | 36036 ft | 395 kts | 299° |
| 2026-04-27 11:42 | 28.50866 | 30.40116 | 36027 ft | 395 kts | 299° |
| 2026-04-27 11:42 | 28.53900 | 30.34899 | 36030 ft | 395 kts | 299° |
| 2026-04-27 11:43 | 28.56929 | 30.29682 | 36034 ft | 395 kts | 299° |
| 2026-04-27 11:43 | 28.59960 | 30.24458 | 36028 ft | 395 kts | 299° |
| 2026-04-27 11:44 | 28.62989 | 30.19230 | 36032 ft | 395 kts | 299° |
| 2026-04-27 11:44 | 28.65503 | 30.14886 | 36028 ft | 395 kts | 299° |
| 2026-04-27 11:45 | 28.68525 | 30.09658 | 36024 ft | 395 kts | 299° |
| 2026-04-27 11:45 | 28.72033 | 30.03580 | 36021 ft | 395 kts | 299° |
| 2026-04-27 11:46 | 28.74541 | 29.99231 | 36019 ft | 395 kts | 299° |
| 2026-04-27 11:46 | 28.77574 | 29.93964 | 36019 ft | 398 kts | 300° |
| 2026-04-27 11:47 | 28.80613 | 29.88680 | 36020 ft | 399 kts | 300° |
| 2026-04-27 11:47 | 28.83650 | 29.83394 | 36013 ft | 398 kts | 300° |
| 2026-04-27 11:48 | 28.86680 | 29.78113 | 36009 ft | 397 kts | 300° |
| 2026-04-27 11:48 | 28.89703 | 29.72836 | 36009 ft | 397 kts | 300° |
| 2026-04-27 11:49 | 28.92725 | 29.67556 | 36011 ft | 397 kts | 300° |
| 2026-04-27 11:49 | 28.95739 | 29.62282 | 36009 ft | 397 kts | 300° |
| 2026-04-27 11:50 | 28.98759 | 29.56991 | 36008 ft | 397 kts | 300° |
| 2026-04-27 11:50 | 29.01772 | 29.51708 | 36014 ft | 397 kts | 300° |
| 2026-04-27 11:51 | 29.04758 | 29.46464 | 36004 ft | 396 kts | 300° |
| 2026-04-27 11:52 | 29.09267 | 29.38536 | 36004 ft | 397 kts | 300° |
| 2026-04-27 11:52 | 29.12426 | 29.33357 | 35986 ft | 401 kts | 311° |
| 2026-04-27 11:53 | 29.16800 | 29.29307 | 35997 ft | 407 kts | 316° |
| 2026-04-27 11:53 | 29.21287 | 29.25344 | 36007 ft | 408 kts | 317° |
| 2026-04-27 11:54 | 29.25804 | 29.21415 | 36017 ft | 407 kts | 317° |
| 2026-04-27 11:54 | 29.30318 | 29.17496 | 36009 ft | 407 kts | 317° |
| 2026-04-27 11:55 | 29.34832 | 29.13575 | 36019 ft | 407 kts | 317° |
| 2026-04-27 11:55 | 29.39335 | 29.09658 | 36014 ft | 407 kts | 317° |
| 2026-04-27 11:56 | 29.43267 | 29.05154 | 36036 ft | 397 kts | 305° |
| 2026-04-27 11:56 | 29.46731 | 29.00168 | 36021 ft | 399 kts | 304° |
| 2026-04-27 11:57 | 29.50155 | 28.95139 | 36034 ft | 399 kts | 304° |
| 2026-04-27 11:57 | 29.53542 | 28.90132 | 36022 ft | 400 kts | 305° |
| 2026-04-27 11:58 | 29.56982 | 28.85036 | 36021 ft | 401 kts | 304° |
| 2026-04-27 11:58 | 29.60372 | 28.80006 | 36018 ft | 401 kts | 304° |
| 2026-04-27 11:59 | 29.63788 | 28.74945 | 36016 ft | 401 kts | 307° |
| 2026-04-27 11:59 | 29.65829 | 28.72746 | 36011 ft | 406 kts | 319° |
| 2026-04-27 11:59 | 29.68064 | 28.70754 | 35999 ft | 407 kts | 317° |
| 2026-04-27 12:00 | 29.72520 | 28.66731 | 36015 ft | 408 kts | 317° |
| 2026-04-27 12:00 | 29.77010 | 28.62733 | 36008 ft | 407 kts | 317° |
| 2026-04-27 12:01 | 29.81497 | 28.58744 | 36010 ft | 408 kts | 317° |
| 2026-04-27 12:01 | 29.85986 | 28.54750 | 36032 ft | 408 kts | 318° |
| 2026-04-27 12:02 | 29.90480 | 28.50747 | 36019 ft | 408 kts | 318° |
| 2026-04-27 12:02 | 29.94975 | 28.46739 | 36018 ft | 408 kts | 318° |
| 2026-04-27 12:03 | 29.99468 | 28.42727 | 36028 ft | 408 kts | 318° |
| 2026-04-27 12:03 | 30.03964 | 28.38708 | 36026 ft | 408 kts | 317° |
| 2026-04-27 12:04 | 30.08456 | 28.34689 | 36022 ft | 409 kts | 317° |
| 2026-04-27 12:04 | 30.12954 | 28.30658 | 36030 ft | 409 kts | 317° |
| 2026-04-27 12:05 | 30.17452 | 28.26623 | 36032 ft | 409 kts | 317° |
| 2026-04-27 12:05 | 30.21922 | 28.22609 | 36034 ft | 409 kts | 317° |
| 2026-04-27 12:06 | 30.26416 | 28.18568 | 36041 ft | 409 kts | 317° |
| 2026-04-27 12:06 | 30.30907 | 28.14525 | 36040 ft | 409 kts | 317° |
| 2026-04-27 12:07 | 30.35397 | 28.10478 | 36040 ft | 409 kts | 317° |
| 2026-04-27 12:07 | 30.39892 | 28.06421 | 36034 ft | 409 kts | 317° |
| 2026-04-27 12:08 | 30.44390 | 28.02357 | 36044 ft | 411 kts | 317° |
| 2026-04-27 12:08 | 30.48894 | 27.98285 | 36067 ft | 411 kts | 318° |
| 2026-04-27 12:09 | 30.53399 | 27.94203 | 36051 ft | 411 kts | 317° |
| 2026-04-27 12:09 | 30.57904 | 27.90119 | 36050 ft | 411 kts | 317° |
| 2026-04-27 12:10 | 30.62414 | 27.86025 | 36054 ft | 411 kts | 317° |
| 2026-04-27 12:10 | 30.66917 | 27.81931 | 36058 ft | 411 kts | 317° |
| 2026-04-27 12:11 | 30.71419 | 27.77834 | 36060 ft | 411 kts | 317° |
| 2026-04-27 12:11 | 30.75921 | 27.73732 | 36062 ft | 411 kts | 317° |
| 2026-04-27 12:12 | 30.80420 | 27.69627 | 36090 ft | 411 kts | 318° |
| 2026-04-27 12:12 | 30.84925 | 27.65513 | 36069 ft | 411 kts | 318° |
| 2026-04-27 12:13 | 30.89397 | 27.61422 | 36068 ft | 412 kts | 318° |
| 2026-04-27 12:13 | 30.93899 | 27.57300 | 36072 ft | 412 kts | 318° |
| 2026-04-27 12:14 | 30.98399 | 27.53175 | 36073 ft | 412 kts | 318° |
| 2026-04-27 12:14 | 31.02897 | 27.49046 | 36076 ft | 412 kts | 318° |
| 2026-04-27 12:15 | 31.07396 | 27.44911 | 36079 ft | 411 kts | 318° |
| 2026-04-27 12:15 | 31.11892 | 27.40774 | 36115 ft | 411 kts | 318° |
| 2026-04-27 12:16 | 31.16386 | 27.36634 | 36097 ft | 411 kts | 318° |
| 2026-04-27 12:16 | 31.20881 | 27.32489 | 36099 ft | 412 kts | 318° |
| 2026-04-27 12:17 | 31.25378 | 27.28336 | 36103 ft | 412 kts | 318° |
| 2026-04-27 12:17 | 31.29871 | 27.24183 | 36104 ft | 412 kts | 318° |
| 2026-04-27 12:18 | 31.34621 | 27.20407 | 36113 ft | 415 kts | 324° |
| 2026-04-27 12:18 | 31.39474 | 27.16832 | 36077 ft | 414 kts | 323° |
| 2026-04-27 12:19 | 31.44336 | 27.13200 | 36117 ft | 415 kts | 323° |
| 2026-04-27 12:19 | 31.49193 | 27.09560 | 36094 ft | 414 kts | 323° |
| 2026-04-27 12:20 | 31.54050 | 27.05915 | 36086 ft | 415 kts | 323° |
| 2026-04-27 12:20 | 31.58909 | 27.02264 | 36084 ft | 415 kts | 323° |
| 2026-04-27 12:21 | 31.63762 | 26.98613 | 36086 ft | 415 kts | 323° |
| 2026-04-27 12:21 | 31.68614 | 26.94958 | 36090 ft | 414 kts | 323° |
| 2026-04-27 12:22 | 31.73469 | 26.91296 | 36102 ft | 414 kts | 323° |
| 2026-04-27 12:22 | 31.78316 | 26.87635 | 36087 ft | 414 kts | 323° |
| 2026-04-27 12:23 | 31.83163 | 26.83969 | 36080 ft | 414 kts | 323° |
| 2026-04-27 12:23 | 31.88012 | 26.80298 | 36077 ft | 414 kts | 323° |
| 2026-04-27 12:24 | 31.92825 | 26.76650 | 36079 ft | 414 kts | 323° |
| 2026-04-27 12:24 | 31.97670 | 26.72972 | 36081 ft | 414 kts | 323° |
| 2026-04-27 12:25 | 32.02513 | 26.69291 | 36106 ft | 414 kts | 323° |
| 2026-04-27 12:25 | 32.07358 | 26.65604 | 36084 ft | 414 kts | 323° |
| 2026-04-27 12:26 | 32.12201 | 26.61914 | 36080 ft | 414 kts | 323° |
| 2026-04-27 12:26 | 32.17044 | 26.58219 | 36080 ft | 414 kts | 323° |
| 2026-04-27 12:27 | 32.21881 | 26.54523 | 36072 ft | 414 kts | 323° |
| 2026-04-27 12:27 | 32.26688 | 26.50847 | 36077 ft | 414 kts | 323° |
| 2026-04-27 12:28 | 32.31527 | 26.47140 | 36078 ft | 414 kts | 323° |
| 2026-04-27 12:28 | 32.36366 | 26.43430 | 36077 ft | 414 kts | 323° |
| 2026-04-27 12:29 | 32.41204 | 26.39714 | 36075 ft | 415 kts | 323° |
| 2026-04-27 12:29 | 32.46048 | 26.35990 | 36077 ft | 415 kts | 323° |
| 2026-04-27 12:30 | 32.50887 | 26.32265 | 36082 ft | 415 kts | 323° |
| 2026-04-27 12:30 | 32.55718 | 26.28541 | 36074 ft | 415 kts | 323° |
| 2026-04-27 12:31 | 32.60555 | 26.24807 | 36082 ft | 415 kts | 323° |
| 2026-04-27 12:31 | 32.65387 | 26.21072 | 36083 ft | 414 kts | 323° |
| 2026-04-27 12:32 | 32.70219 | 26.17333 | 36080 ft | 414 kts | 323° |
| 2026-04-27 12:32 | 32.75043 | 26.13594 | 36079 ft | 414 kts | 323° |
| 2026-04-27 12:33 | 32.79871 | 26.09848 | 36078 ft | 414 kts | 323° |
| 2026-04-27 12:33 | 32.83882 | 26.06732 | 36084 ft | 414 kts | 323° |
| 2026-04-27 12:34 | 32.89494 | 26.02366 | 36081 ft | 414 kts | 323° |
| 2026-04-27 12:34 | 32.93533 | 25.99221 | 36089 ft | 414 kts | 323° |
| 2026-04-27 12:35 | 32.98347 | 25.95466 | 36081 ft | 414 kts | 323° |
| 2026-04-27 12:35 | 33.03137 | 25.91725 | 36079 ft | 414 kts | 323° |
| 2026-04-27 12:36 | 33.07956 | 25.87957 | 36080 ft | 414 kts | 323° |
| 2026-04-27 12:36 | 33.12778 | 25.84181 | 36081 ft | 414 kts | 323° |
| 2026-04-27 12:37 | 33.17600 | 25.80401 | 36078 ft | 414 kts | 323° |
| 2026-04-27 12:37 | 33.22416 | 25.76619 | 36078 ft | 414 kts | 323° |
| 2026-04-27 12:38 | 33.27236 | 25.72831 | 36075 ft | 414 kts | 323° |
| 2026-04-27 12:38 | 33.32052 | 25.69040 | 36078 ft | 414 kts | 323° |
| 2026-04-27 12:39 | 33.36869 | 25.65242 | 36078 ft | 414 kts | 323° |
| 2026-04-27 12:39 | 33.41682 | 25.61443 | 36081 ft | 415 kts | 323° |
| 2026-04-27 12:40 | 33.46473 | 25.57657 | 36082 ft | 415 kts | 323° |
| 2026-04-27 12:40 | 33.51318 | 25.53823 | 36083 ft | 414 kts | 323° |
| 2026-04-27 12:41 | 33.56094 | 25.50037 | 36080 ft | 414 kts | 323° |
| 2026-04-27 12:41 | 33.60903 | 25.46221 | 36078 ft | 414 kts | 323° |
| 2026-04-27 12:42 | 33.65711 | 25.42400 | 36077 ft | 414 kts | 323° |
| 2026-04-27 12:42 | 33.70514 | 25.38578 | 36082 ft | 414 kts | 322° |
| 2026-04-27 12:43 | 33.75323 | 25.34746 | 36080 ft | 414 kts | 322° |
| 2026-04-27 12:43 | 33.80127 | 25.30914 | 36085 ft | 414 kts | 322° |
| 2026-04-27 12:44 | 33.84928 | 25.27079 | 36077 ft | 414 kts | 322° |
| 2026-04-27 12:44 | 33.89729 | 25.23239 | 36075 ft | 414 kts | 322° |
| 2026-04-27 12:45 | 33.94533 | 25.19391 | 36075 ft | 414 kts | 322° |
| 2026-04-27 12:45 | 33.99302 | 25.15561 | 36074 ft | 414 kts | 321° |
| 2026-04-27 12:46 | 34.03527 | 25.10945 | 36068 ft | 411 kts | 314° |
| 2026-04-27 12:46 | 34.07670 | 25.06216 | 36095 ft | 411 kts | 314° |
| 2026-04-27 12:47 | 34.11808 | 25.01470 | 36088 ft | 410 kts | 314° |
| 2026-04-27 12:47 | 34.15942 | 24.96720 | 36079 ft | 411 kts | 314° |
| 2026-04-27 12:48 | 34.20077 | 24.91961 | 36067 ft | 411 kts | 314° |
| 2026-04-27 12:48 | 34.24212 | 24.87197 | 36072 ft | 411 kts | 313° |
| 2026-04-27 12:49 | 34.28346 | 24.82427 | 36079 ft | 411 kts | 313° |
| 2026-04-27 12:49 | 34.32479 | 24.77651 | 36075 ft | 411 kts | 313° |
| 2026-04-27 12:50 | 34.36608 | 24.72873 | 36065 ft | 411 kts | 313° |
| 2026-04-27 12:50 | 34.40735 | 24.68090 | 36075 ft | 410 kts | 314° |
| 2026-04-27 12:51 | 34.44852 | 24.63313 | 36078 ft | 410 kts | 313° |
| 2026-04-27 12:51 | 34.48969 | 24.58528 | 36071 ft | 410 kts | 313° |
| 2026-04-27 12:52 | 34.53022 | 24.53726 | 36079 ft | 410 kts | 312° |
| 2026-04-27 12:52 | 34.57051 | 24.48830 | 36072 ft | 410 kts | 312° |
| 2026-04-27 12:53 | 34.63098 | 24.41486 | 36068 ft | 410 kts | 312° |
| 2026-04-27 12:53 | 34.67125 | 24.36587 | 36068 ft | 410 kts | 312° |
| 2026-04-27 12:54 | 34.71162 | 24.31670 | 36082 ft | 411 kts | 312° |
| 2026-04-27 12:54 | 34.75191 | 24.26754 | 36070 ft | 410 kts | 312° |
| 2026-04-27 12:55 | 34.79216 | 24.21836 | 36068 ft | 410 kts | 312° |
| 2026-04-27 12:55 | 34.83245 | 24.16906 | 36063 ft | 410 kts | 312° |
| 2026-04-27 12:56 | 34.87269 | 24.11975 | 36067 ft | 410 kts | 312° |
| 2026-04-27 12:56 | 34.91289 | 24.07042 | 36067 ft | 410 kts | 312° |
| 2026-04-27 12:57 | 34.95316 | 24.02093 | 36071 ft | 412 kts | 312° |
| 2026-04-27 12:57 | 34.99340 | 23.97127 | 36072 ft | 411 kts | 312° |
| 2026-04-27 12:58 | 35.03365 | 23.92155 | 36088 ft | 411 kts | 312° |
| 2026-04-27 12:58 | 35.07352 | 23.87221 | 36073 ft | 410 kts | 312° |
| 2026-04-27 12:59 | 35.11365 | 23.82249 | 36075 ft | 410 kts | 312° |
| 2026-04-27 12:59 | 35.15371 | 23.77278 | 36075 ft | 410 kts | 312° |
| 2026-04-27 13:00 | 35.19379 | 23.72297 | 36074 ft | 411 kts | 311° |
| 2026-04-27 13:00 | 35.23487 | 23.67407 | 36080 ft | 413 kts | 317° |
| 2026-04-27 13:01 | 35.27890 | 23.62888 | 36077 ft | 413 kts | 316° |
| 2026-04-27 13:01 | 35.32255 | 23.58307 | 36087 ft | 414 kts | 316° |
| 2026-04-27 13:02 | 35.36614 | 23.53712 | 36089 ft | 413 kts | 316° |
| 2026-04-27 13:02 | 35.40960 | 23.49121 | 36088 ft | 413 kts | 316° |
| 2026-04-27 13:03 | 35.45307 | 23.44524 | 36091 ft | 413 kts | 316° |
| 2026-04-27 13:03 | 35.49660 | 23.39913 | 36094 ft | 414 kts | 316° |
| 2026-04-27 13:04 | 35.54027 | 23.35281 | 36092 ft | 415 kts | 316° |
| 2026-04-27 13:04 | 35.58363 | 23.30675 | 36092 ft | 415 kts | 316° |
| 2026-04-27 13:05 | 35.62754 | 23.26002 | 36107 ft | 415 kts | 316° |
| 2026-04-27 13:05 | 35.67084 | 23.21389 | 36097 ft | 414 kts | 316° |
| 2026-04-27 13:06 | 35.71433 | 23.16747 | 36095 ft | 414 kts | 316° |
| 2026-04-27 13:06 | 35.75787 | 23.12094 | 36097 ft | 414 kts | 316° |
| 2026-04-27 13:07 | 35.80138 | 23.07438 | 36097 ft | 414 kts | 315° |
| 2026-04-27 13:07 | 35.84494 | 23.02779 | 36096 ft | 415 kts | 316° |
| 2026-04-27 13:08 | 35.88852 | 22.98123 | 36098 ft | 414 kts | 316° |
| 2026-04-27 13:08 | 35.93206 | 22.93464 | 36110 ft | 415 kts | 316° |
| 2026-04-27 13:09 | 35.97569 | 22.88787 | 36100 ft | 416 kts | 316° |
| 2026-04-27 13:09 | 36.01938 | 22.84099 | 36100 ft | 416 kts | 316° |
| 2026-04-27 13:10 | 36.06278 | 22.79433 | 36099 ft | 416 kts | 315° |
| 2026-04-27 13:10 | 36.10640 | 22.74736 | 36099 ft | 415 kts | 315° |
| 2026-04-27 13:11 | 36.14994 | 22.70042 | 36100 ft | 415 kts | 315° |
| 2026-04-27 13:11 | 36.19351 | 22.65336 | 36100 ft | 415 kts | 315° |
| 2026-04-27 13:12 | 36.23704 | 22.60628 | 36100 ft | 415 kts | 315° |
| 2026-04-27 13:12 | 36.28055 | 22.55914 | 36100 ft | 415 kts | 315° |
| 2026-04-27 13:13 | 36.32402 | 22.51198 | 36099 ft | 415 kts | 315° |
| 2026-04-27 13:13 | 36.36751 | 22.46473 | 36100 ft | 415 kts | 315° |
| 2026-04-27 13:14 | 36.41099 | 22.41740 | 36100 ft | 416 kts | 315° |
| 2026-04-27 13:14 | 36.45447 | 22.37002 | 36099 ft | 416 kts | 315° |
| 2026-04-27 13:15 | 36.49794 | 22.32256 | 36111 ft | 416 kts | 315° |
| 2026-04-27 13:15 | 36.54153 | 22.27490 | 36103 ft | 418 kts | 315° |
| 2026-04-27 13:16 | 36.58519 | 22.22709 | 36097 ft | 418 kts | 315° |
| 2026-04-27 13:16 | 36.62851 | 22.17957 | 36097 ft | 418 kts | 315° |
| 2026-04-27 13:17 | 36.67212 | 22.13166 | 36100 ft | 418 kts | 315° |
| 2026-04-27 13:17 | 36.71570 | 22.08372 | 36099 ft | 418 kts | 315° |
| 2026-04-27 13:18 | 36.75932 | 22.03566 | 36092 ft | 418 kts | 315° |
| 2026-04-27 13:18 | 36.80286 | 21.98760 | 36100 ft | 419 kts | 315° |
| 2026-04-27 13:19 | 36.84666 | 21.93918 | 36091 ft | 422 kts | 315° |
| 2026-04-27 13:19 | 36.89058 | 21.89055 | 36081 ft | 422 kts | 315° |
| 2026-04-27 13:20 | 36.93446 | 21.84188 | 36090 ft | 422 kts | 315° |
| 2026-04-27 13:20 | 36.97025 | 21.80213 | 36082 ft | 422 kts | 315° |
| 2026-04-27 13:21 | 37.01480 | 21.75258 | 36088 ft | 422 kts | 315° |
| 2026-04-27 13:21 | 37.05860 | 21.70378 | 36092 ft | 421 kts | 315° |
| 2026-04-27 13:22 | 37.10240 | 21.65490 | 36099 ft | 423 kts | 315° |
| 2026-04-27 13:22 | 37.14650 | 21.60562 | 36101 ft | 425 kts | 315° |
| 2026-04-27 13:23 | 37.19061 | 21.55623 | 36096 ft | 425 kts | 315° |
| 2026-04-27 13:23 | 37.23471 | 21.50678 | 36100 ft | 425 kts | 315° |
| 2026-04-27 13:24 | 37.27844 | 21.45767 | 36101 ft | 425 kts | 315° |
| 2026-04-27 13:24 | 37.32242 | 21.40819 | 36100 ft | 425 kts | 315° |
| 2026-04-27 13:25 | 37.36642 | 21.35861 | 36097 ft | 425 kts | 315° |
| 2026-04-27 13:25 | 37.41050 | 21.30885 | 36100 ft | 427 kts | 315° |
| 2026-04-27 13:26 | 37.45469 | 21.25889 | 36094 ft | 427 kts | 315° |
| 2026-04-27 13:26 | 37.49887 | 21.20887 | 36094 ft | 427 kts | 315° |
| 2026-04-27 13:27 | 37.54298 | 21.15883 | 36088 ft | 427 kts | 315° |
| 2026-04-27 13:27 | 37.58712 | 21.10868 | 36084 ft | 428 kts | 315° |
| 2026-04-27 13:28 | 37.63130 | 21.05839 | 36081 ft | 428 kts | 315° |
| 2026-04-27 13:28 | 37.67549 | 21.00801 | 36079 ft | 429 kts | 315° |
| 2026-04-27 13:29 | 37.71987 | 20.95733 | 36076 ft | 430 kts | 315° |
| 2026-04-27 13:29 | 37.76420 | 20.90663 | 36076 ft | 430 kts | 315° |
| 2026-04-27 13:30 | 37.80852 | 20.85585 | 36073 ft | 430 kts | 315° |
| 2026-04-27 13:30 | 37.85284 | 20.80498 | 36077 ft | 430 kts | 315° |
| 2026-04-27 13:31 | 37.89717 | 20.75401 | 36080 ft | 431 kts | 315° |
| 2026-04-27 13:31 | 37.94153 | 20.70296 | 36090 ft | 431 kts | 315° |
| 2026-04-27 13:32 | 37.98598 | 20.65169 | 36088 ft | 433 kts | 315° |
| 2026-04-27 13:32 | 38.03049 | 20.60029 | 36101 ft | 433 kts | 315° |
| 2026-04-27 13:33 | 38.07468 | 20.54916 | 36103 ft | 433 kts | 315° |
| 2026-04-27 13:33 | 38.11894 | 20.49677 | 36102 ft | 432 kts | 313° |
| 2026-04-27 13:34 | 38.16182 | 20.44315 | 36100 ft | 433 kts | 313° |
| 2026-04-27 13:34 | 38.20460 | 20.38993 | 36098 ft | 433 kts | 313° |
| 2026-04-27 13:35 | 38.24770 | 20.33627 | 36086 ft | 434 kts | 313° |
| 2026-04-27 13:35 | 38.29080 | 20.28251 | 36103 ft | 434 kts | 313° |
| 2026-04-27 13:36 | 38.33389 | 20.22855 | 36093 ft | 434 kts | 313° |
| 2026-04-27 13:36 | 38.37693 | 20.17451 | 36091 ft | 434 kts | 313° |
| 2026-04-27 13:37 | 38.41993 | 20.12041 | 36081 ft | 435 kts | 313° |
| 2026-04-27 13:37 | 38.46299 | 20.06612 | 36089 ft | 435 kts | 313° |
| 2026-04-27 13:38 | 38.50603 | 20.01177 | 36099 ft | 435 kts | 313° |
| 2026-04-27 13:38 | 38.54904 | 19.95735 | 36084 ft | 436 kts | 313° |
| 2026-04-27 13:39 | 38.59209 | 19.90279 | 36086 ft | 435 kts | 313° |
| 2026-04-27 13:39 | 38.63509 | 19.84820 | 36087 ft | 436 kts | 313° |
| 2026-04-27 13:40 | 38.67805 | 19.79356 | 36095 ft | 436 kts | 313° |
| 2026-04-27 13:40 | 38.72108 | 19.73873 | 36091 ft | 437 kts | 313° |
| 2026-04-27 13:41 | 38.76413 | 19.68378 | 36081 ft | 437 kts | 313° |
| 2026-04-27 13:41 | 38.80715 | 19.62876 | 36096 ft | 437 kts | 313° |
| 2026-04-27 13:42 | 38.85015 | 19.57368 | 36097 ft | 437 kts | 313° |
| 2026-04-27 13:42 | 38.89310 | 19.51855 | 36085 ft | 437 kts | 313° |
| 2026-04-27 13:43 | 38.93605 | 19.46333 | 36088 ft | 437 kts | 313° |
| 2026-04-27 13:43 | 38.97898 | 19.40802 | 36090 ft | 437 kts | 313° |
| 2026-04-27 13:44 | 39.02165 | 19.35297 | 36076 ft | 437 kts | 313° |
| 2026-04-27 13:44 | 39.06454 | 19.29751 | 36083 ft | 437 kts | 313° |
| 2026-04-27 13:45 | 39.10741 | 19.24199 | 36086 ft | 437 kts | 313° |
| 2026-04-27 13:45 | 39.15027 | 19.18637 | 36074 ft | 437 kts | 313° |
| 2026-04-27 13:46 | 39.19315 | 19.13064 | 36089 ft | 437 kts | 313° |
| 2026-04-27 13:46 | 39.23597 | 19.07489 | 36088 ft | 437 kts | 313° |
| 2026-04-27 13:47 | 39.27876 | 19.01908 | 36097 ft | 438 kts | 313° |
| 2026-04-27 13:47 | 39.32163 | 18.96318 | 36092 ft | 438 kts | 313° |
| 2026-04-27 13:48 | 39.36452 | 18.90720 | 36089 ft | 437 kts | 313° |
| 2026-04-27 13:48 | 39.40722 | 18.85136 | 36092 ft | 437 kts | 313° |
| 2026-04-27 13:49 | 39.44988 | 18.79547 | 36090 ft | 437 kts | 313° |
| 2026-04-27 13:49 | 39.49508 | 18.74375 | 36109 ft | 438 kts | 319° |
| 2026-04-27 13:50 | 39.54283 | 18.69454 | 36090 ft | 438 kts | 320° |
| 2026-04-27 13:50 | 39.59059 | 18.64544 | 36093 ft | 438 kts | 320° |
| 2026-04-27 13:51 | 39.63836 | 18.59628 | 36097 ft | 437 kts | 319° |
| 2026-04-27 13:51 | 39.68598 | 18.54718 | 36098 ft | 437 kts | 319° |
| 2026-04-27 13:52 | 39.73363 | 18.49796 | 36095 ft | 437 kts | 319° |
| 2026-04-27 13:52 | 39.78120 | 18.44873 | 36091 ft | 437 kts | 319° |
| 2026-04-27 13:53 | 39.85227 | 18.37502 | 36092 ft | 438 kts | 319° |
| 2026-04-27 13:54 | 39.89982 | 18.32558 | 36087 ft | 437 kts | 319° |
| 2026-04-27 13:54 | 39.94728 | 18.27616 | 36090 ft | 437 kts | 319° |
| 2026-04-27 13:55 | 39.99472 | 18.22667 | 36083 ft | 437 kts | 319° |
| 2026-04-27 13:55 | 40.04212 | 18.17712 | 36086 ft | 437 kts | 319° |
| 2026-04-27 13:56 | 40.08949 | 18.12751 | 36078 ft | 437 kts | 319° |
| 2026-04-27 13:56 | 40.13692 | 18.07775 | 36088 ft | 436 kts | 319° |
| 2026-04-27 13:57 | 40.18414 | 18.02813 | 36075 ft | 435 kts | 319° |
| 2026-04-27 13:57 | 40.23128 | 17.97848 | 36077 ft | 435 kts | 319° |
| 2026-04-27 13:58 | 40.27840 | 17.92878 | 36079 ft | 435 kts | 319° |
| 2026-04-27 13:58 | 40.32524 | 17.87928 | 36080 ft | 435 kts | 319° |
| 2026-04-27 13:59 | 40.37228 | 17.82947 | 36082 ft | 435 kts | 319° |
| 2026-04-27 13:59 | 40.41928 | 17.77961 | 36080 ft | 434 kts | 319° |
| 2026-04-27 14:00 | 40.46617 | 17.72977 | 36082 ft | 433 kts | 319° |
| 2026-04-27 14:00 | 40.51297 | 17.67995 | 36081 ft | 433 kts | 319° |
| 2026-04-27 14:01 | 40.55975 | 17.63005 | 36081 ft | 433 kts | 319° |
| 2026-04-27 14:01 | 40.60653 | 17.58006 | 36078 ft | 433 kts | 319° |
| 2026-04-27 14:02 | 40.65326 | 17.53005 | 36087 ft | 432 kts | 319° |
| 2026-04-27 14:02 | 40.69987 | 17.48007 | 36078 ft | 431 kts | 318° |
| 2026-04-27 14:03 | 40.74299 | 17.42533 | 36091 ft | 430 kts | 313° |
| 2026-04-27 14:03 | 40.78527 | 17.36946 | 36091 ft | 430 kts | 313° |
| 2026-04-27 14:04 | 40.82746 | 17.31349 | 36089 ft | 430 kts | 313° |
| 2026-04-27 14:04 | 40.86933 | 17.25783 | 36089 ft | 430 kts | 313° |
| 2026-04-27 14:05 | 40.91146 | 17.20172 | 36099 ft | 429 kts | 313° |
| 2026-04-27 14:05 | 40.95335 | 17.14581 | 36091 ft | 428 kts | 313° |
| 2026-04-27 14:06 | 40.99525 | 17.08980 | 36091 ft | 428 kts | 313° |
| 2026-04-27 14:06 | 41.03713 | 17.03370 | 36081 ft | 428 kts | 313° |
| 2026-04-27 14:07 | 41.07902 | 16.97748 | 36087 ft | 428 kts | 313° |
| 2026-04-27 14:07 | 41.11375 | 16.93078 | 36091 ft | 428 kts | 313° |
| 2026-04-27 14:08 | 41.15559 | 16.87442 | 36121 ft | 428 kts | 313° |
| 2026-04-27 14:08 | 41.19728 | 16.81816 | 36105 ft | 427 kts | 313° |
| 2026-04-27 14:09 | 41.23888 | 16.76193 | 36102 ft | 427 kts | 313° |
| 2026-04-27 14:09 | 41.28045 | 16.70560 | 36097 ft | 427 kts | 313° |
| 2026-04-27 14:10 | 41.32199 | 16.64922 | 36101 ft | 427 kts | 313° |
| 2026-04-27 14:10 | 41.36354 | 16.59272 | 36091 ft | 427 kts | 313° |
| 2026-04-27 14:11 | 41.40505 | 16.53619 | 36090 ft | 427 kts | 313° |
| 2026-04-27 14:11 | 41.44941 | 16.48436 | 36080 ft | 427 kts | 317° |
| 2026-04-27 14:12 | 41.49418 | 16.43238 | 36091 ft | 427 kts | 316° |
| 2026-04-27 14:12 | 41.53879 | 16.38014 | 36095 ft | 427 kts | 316° |
| 2026-04-27 14:13 | 41.58337 | 16.32782 | 36091 ft | 427 kts | 316° |
| 2026-04-27 14:13 | 41.62795 | 16.27540 | 36089 ft | 427 kts | 316° |
| 2026-04-27 14:14 | 41.67251 | 16.22289 | 36093 ft | 427 kts | 316° |
| 2026-04-27 14:14 | 41.71707 | 16.17029 | 36089 ft | 427 kts | 316° |
| 2026-04-27 14:15 | 41.76154 | 16.11770 | 36090 ft | 427 kts | 316° |
| 2026-04-27 14:15 | 41.80608 | 16.06491 | 36086 ft | 427 kts | 316° |
| 2026-04-27 14:16 | 41.85059 | 16.01206 | 36092 ft | 427 kts | 316° |
| 2026-04-27 14:16 | 41.89507 | 15.95915 | 36086 ft | 428 kts | 316° |
| 2026-04-27 14:17 | 41.93953 | 15.90616 | 36091 ft | 427 kts | 317° |
| 2026-04-27 14:17 | 41.98394 | 15.85312 | 36168 ft | 428 kts | 317° |
| 2026-04-27 14:17 | 42.00589 | 15.82687 | 36454 ft | 427 kts | 317° |
| 2026-04-27 14:18 | 42.02806 | 15.80033 | 36708 ft | 427 kts | 317° |
| 2026-04-27 14:18 | 42.05030 | 15.77367 | 36964 ft | 427 kts | 317° |
| 2026-04-27 14:18 | 42.07247 | 15.74708 | 37217 ft | 427 kts | 317° |
| 2026-04-27 14:18 | 42.09460 | 15.72051 | 37464 ft | 426 kts | 317° |
| 2026-04-27 14:19 | 42.11671 | 15.69394 | 37712 ft | 426 kts | 317° |
| 2026-04-27 14:19 | 42.13880 | 15.66736 | 37948 ft | 425 kts | 317° |
| 2026-04-27 14:19 | 42.16082 | 15.64085 | 38112 ft | 425 kts | 317° |
| 2026-04-27 14:20 | 42.20499 | 15.58758 | 38076 ft | 425 kts | 317° |
| 2026-04-27 14:20 | 42.24902 | 15.53439 | 38086 ft | 425 kts | 317° |
| 2026-04-27 14:21 | 42.29308 | 15.48112 | 38086 ft | 425 kts | 318° |
| 2026-04-27 14:21 | 42.33810 | 15.42931 | 38089 ft | 425 kts | 318° |
| 2026-04-27 14:22 | 42.38311 | 15.37732 | 38085 ft | 425 kts | 318° |
| 2026-04-27 14:22 | 42.42809 | 15.32521 | 38088 ft | 426 kts | 319° |
| 2026-04-27 14:23 | 42.47291 | 15.27319 | 38077 ft | 427 kts | 319° |
| 2026-04-27 14:23 | 42.51801 | 15.22073 | 38090 ft | 428 kts | 319° |
| 2026-04-27 14:24 | 42.56313 | 15.16816 | 38088 ft | 428 kts | 319° |
| 2026-04-27 14:24 | 42.60828 | 15.11545 | 38089 ft | 428 kts | 319° |
| 2026-04-27 14:25 | 42.65345 | 15.06260 | 38089 ft | 429 kts | 319° |
| 2026-04-27 14:25 | 42.69865 | 15.00961 | 38089 ft | 429 kts | 319° |
| 2026-04-27 14:26 | 42.74376 | 14.95662 | 38090 ft | 429 kts | 319° |
| 2026-04-27 14:26 | 42.78892 | 14.90348 | 38074 ft | 429 kts | 319° |
| 2026-04-27 14:27 | 42.83411 | 14.85018 | 38091 ft | 430 kts | 319° |
| 2026-04-27 14:27 | 42.87925 | 14.79684 | 38094 ft | 430 kts | 319° |
| 2026-04-27 14:28 | 42.92442 | 14.74336 | 38090 ft | 430 kts | 319° |
| 2026-04-27 14:28 | 42.96957 | 14.68979 | 38091 ft | 430 kts | 319° |
| 2026-04-27 14:29 | 43.01469 | 14.63614 | 38088 ft | 430 kts | 319° |
| 2026-04-27 14:29 | 43.05975 | 14.58246 | 38089 ft | 430 kts | 319° |
| 2026-04-27 14:30 | 43.10487 | 14.52860 | 38094 ft | 430 kts | 319° |
| 2026-04-27 14:30 | 43.14851 | 14.47641 | 38094 ft | 429 kts | 319° |
| 2026-04-27 14:31 | 43.19317 | 14.42288 | 38092 ft | 429 kts | 319° |
| 2026-04-27 14:31 | 43.23811 | 14.36891 | 38092 ft | 430 kts | 319° |
| 2026-04-27 14:32 | 43.28302 | 14.31487 | 38091 ft | 429 kts | 319° |
| 2026-04-27 14:32 | 43.32790 | 14.26076 | 38091 ft | 429 kts | 319° |
| 2026-04-27 14:33 | 43.37280 | 14.20652 | 38081 ft | 430 kts | 319° |
| 2026-04-27 14:33 | 43.41770 | 14.15219 | 38092 ft | 430 kts | 319° |
| 2026-04-27 14:34 | 43.46214 | 14.09710 | 38091 ft | 430 kts | 318° |
| 2026-04-27 14:34 | 43.50647 | 14.04164 | 38092 ft | 430 kts | 318° |
| 2026-04-27 14:35 | 43.55075 | 13.98619 | 38095 ft | 430 kts | 318° |
| 2026-04-27 14:35 | 43.59500 | 13.93068 | 38092 ft | 430 kts | 318° |
| 2026-04-27 14:36 | 43.63914 | 13.87518 | 38095 ft | 430 kts | 318° |
| 2026-04-27 14:36 | 43.68330 | 13.81954 | 38089 ft | 430 kts | 318° |
| 2026-04-27 14:37 | 43.72720 | 13.76413 | 38087 ft | 430 kts | 318° |
| 2026-04-27 14:37 | 43.77135 | 13.70827 | 38088 ft | 430 kts | 317° |
| 2026-04-27 14:38 | 43.81548 | 13.65232 | 38092 ft | 430 kts | 317° |
| 2026-04-27 14:38 | 43.85953 | 13.59637 | 38088 ft | 430 kts | 317° |
| 2026-04-27 14:39 | 43.90353 | 13.54035 | 38086 ft | 430 kts | 317° |
| 2026-04-27 14:39 | 43.94752 | 13.48423 | 38081 ft | 430 kts | 317° |
| 2026-04-27 14:40 | 43.99151 | 13.42799 | 38089 ft | 430 kts | 317° |
| 2026-04-27 14:40 | 44.03544 | 13.37170 | 38091 ft | 430 kts | 317° |
| 2026-04-27 14:41 | 44.07937 | 13.31531 | 38089 ft | 430 kts | 317° |
| 2026-04-27 14:41 | 44.12330 | 13.25879 | 38089 ft | 430 kts | 317° |
| 2026-04-27 14:42 | 44.16715 | 13.20225 | 38089 ft | 430 kts | 317° |
| 2026-04-27 14:42 | 44.21101 | 13.14559 | 38089 ft | 430 kts | 317° |
| 2026-04-27 14:43 | 44.25486 | 13.08880 | 38086 ft | 430 kts | 317° |
| 2026-04-27 14:43 | 44.29835 | 13.03238 | 38085 ft | 430 kts | 317° |
| 2026-04-27 14:44 | 44.34210 | 12.97549 | 38089 ft | 430 kts | 317° |
| 2026-04-27 14:44 | 44.38585 | 12.91848 | 38091 ft | 430 kts | 317° |
| 2026-04-27 14:45 | 44.42954 | 12.86142 | 38088 ft | 430 kts | 317° |
| 2026-04-27 14:45 | 44.47325 | 12.80425 | 38102 ft | 430 kts | 317° |
| 2026-04-27 14:46 | 44.51680 | 12.74716 | 38093 ft | 429 kts | 317° |
| 2026-04-27 14:46 | 44.56017 | 12.68964 | 38103 ft | 429 kts | 316° |
| 2026-04-27 14:47 | 44.60343 | 12.63189 | 38105 ft | 429 kts | 316° |
| 2026-04-27 14:47 | 44.64666 | 12.57409 | 38105 ft | 429 kts | 316° |
| 2026-04-27 14:48 | 44.68988 | 12.51618 | 38104 ft | 429 kts | 316° |
| 2026-04-27 14:48 | 44.75466 | 12.42916 | 38107 ft | 429 kts | 316° |
| 2026-04-27 14:49 | 44.79775 | 12.37111 | 38108 ft | 429 kts | 316° |
| 2026-04-27 14:49 | 44.84089 | 12.31287 | 38108 ft | 429 kts | 316° |
| 2026-04-27 14:50 | 44.88394 | 12.25462 | 38095 ft | 429 kts | 316° |
| 2026-04-27 14:50 | 44.92666 | 12.19669 | 38112 ft | 429 kts | 316° |
| 2026-04-27 14:51 | 44.96965 | 12.13828 | 38096 ft | 428 kts | 316° |
| 2026-04-27 14:51 | 45.00559 | 12.08933 | 38099 ft | 429 kts | 316° |
| 2026-04-27 14:52 | 45.05546 | 12.02128 | 38086 ft | 429 kts | 316° |
| 2026-04-27 14:52 | 45.09836 | 11.96260 | 38079 ft | 429 kts | 316° |
| 2026-04-27 14:53 | 45.14120 | 11.90386 | 38080 ft | 429 kts | 316° |
| 2026-04-27 14:53 | 45.18404 | 11.84501 | 38079 ft | 428 kts | 316° |
| 2026-04-27 14:54 | 45.21952 | 11.79616 | 38079 ft | 428 kts | 316° |
| 2026-04-27 14:54 | 45.26225 | 11.73721 | 38071 ft | 428 kts | 316° |
| 2026-04-27 14:55 | 45.30493 | 11.67821 | 38075 ft | 428 kts | 316° |
| 2026-04-27 14:55 | 45.34756 | 11.61914 | 38066 ft | 428 kts | 316° |
| 2026-04-27 14:56 | 45.39015 | 11.56003 | 38079 ft | 428 kts | 316° |
| 2026-04-27 14:56 | 45.43287 | 11.50109 | 38084 ft | 427 kts | 317° |
| 2026-04-27 14:57 | 45.47593 | 11.44271 | 38076 ft | 427 kts | 316° |
| 2026-04-27 14:57 | 45.51893 | 11.38420 | 38076 ft | 427 kts | 316° |
| 2026-04-27 14:58 | 45.56190 | 11.32559 | 38076 ft | 427 kts | 316° |
| 2026-04-27 14:58 | 45.60454 | 11.26729 | 38085 ft | 427 kts | 316° |
| 2026-04-27 14:59 | 45.64740 | 11.20856 | 38081 ft | 426 kts | 316° |
| 2026-04-27 14:59 | 45.69014 | 11.14987 | 38092 ft | 426 kts | 316° |
| 2026-04-27 15:00 | 45.73289 | 11.09103 | 38099 ft | 426 kts | 316° |
| 2026-04-27 15:00 | 45.77563 | 11.03208 | 38102 ft | 426 kts | 316° |
| 2026-04-27 15:01 | 45.81829 | 10.97311 | 38103 ft | 426 kts | 316° |
| 2026-04-27 15:01 | 45.86090 | 10.91406 | 38114 ft | 426 kts | 316° |
| 2026-04-27 15:02 | 45.90337 | 10.85509 | 38102 ft | 424 kts | 316° |
| 2026-04-27 15:02 | 45.94578 | 10.79606 | 38099 ft | 424 kts | 316° |
| 2026-04-27 15:03 | 45.98785 | 10.73738 | 38115 ft | 425 kts | 316° |
| 2026-04-27 15:03 | 46.03012 | 10.67828 | 38100 ft | 423 kts | 316° |
| 2026-04-27 15:04 | 46.07230 | 10.61918 | 38126 ft | 423 kts | 316° |
| 2026-04-27 15:04 | 46.11439 | 10.56007 | 38102 ft | 421 kts | 316° |
| 2026-04-27 15:05 | 46.15640 | 10.50094 | 38123 ft | 423 kts | 315° |
| 2026-04-27 15:05 | 46.19840 | 10.44169 | 38112 ft | 422 kts | 315° |
| 2026-04-27 15:06 | 46.24030 | 10.38244 | 38153 ft | 420 kts | 315° |
| 2026-04-27 15:06 | 46.28185 | 10.32356 | 38130 ft | 417 kts | 315° |
| 2026-04-27 15:07 | 46.32342 | 10.26451 | 38184 ft | 419 kts | 315° |
| 2026-04-27 15:07 | 46.36500 | 10.20533 | 38130 ft | 418 kts | 315° |
| 2026-04-27 15:08 | 46.40651 | 10.14614 | 38173 ft | 419 kts | 315° |
| 2026-04-27 15:08 | 46.44801 | 10.08684 | 38161 ft | 418 kts | 315° |
| 2026-04-27 15:09 | 46.48813 | 10.02591 | 38174 ft | 416 kts | 310° |
| 2026-04-27 15:09 | 46.52622 | 9.96263 | 38142 ft | 416 kts | 311° |
| 2026-04-27 15:10 | 46.56454 | 9.89958 | 38163 ft | 415 kts | 310° |
| 2026-04-27 15:10 | 46.60266 | 9.83680 | 38173 ft | 415 kts | 310° |
| 2026-04-27 15:11 | 46.64078 | 9.77388 | 38163 ft | 414 kts | 311° |
| 2026-04-27 15:11 | 46.67886 | 9.71090 | 38151 ft | 414 kts | 310° |
| 2026-04-27 15:12 | 46.71683 | 9.64792 | 38132 ft | 413 kts | 310° |
| 2026-04-27 15:12 | 46.75475 | 9.58491 | 38156 ft | 413 kts | 310° |
| 2026-04-27 15:13 | 46.79241 | 9.52219 | 38082 ft | 413 kts | 309° |
| 2026-04-27 15:13 | 46.83017 | 9.45914 | 38177 ft | 414 kts | 310° |
| 2026-04-27 15:14 | 46.84908 | 9.42753 | 38058 ft | 412 kts | 310° |
| 2026-04-27 15:14 | 46.86785 | 9.39609 | 38114 ft | 409 kts | 310° |
| 2026-04-27 15:14 | 46.90551 | 9.33295 | 38120 ft | 413 kts | 309° |
| 2026-04-27 15:15 | 46.94310 | 9.26973 | 38108 ft | 411 kts | 309° |
| 2026-04-27 15:15 | 46.98066 | 9.20644 | 38071 ft | 411 kts | 310° |
| 2026-04-27 15:16 | 47.01815 | 9.14310 | 38082 ft | 413 kts | 309° |
| 2026-04-27 15:16 | 47.05558 | 9.07974 | 38121 ft | 410 kts | 309° |
| 2026-04-27 15:17 | 47.09290 | 9.01642 | 38124 ft | 409 kts | 309° |
| 2026-04-27 15:17 | 47.13022 | 8.95296 | 38126 ft | 410 kts | 309° |
| 2026-04-27 15:18 | 47.16736 | 8.88936 | 38129 ft | 410 kts | 308° |
| 2026-04-27 15:18 | 47.20436 | 8.82557 | 38127 ft | 410 kts | 308° |
| 2026-04-27 15:19 | 47.24137 | 8.76165 | 38128 ft | 410 kts | 308° |
| 2026-04-27 15:19 | 47.27834 | 8.69765 | 38130 ft | 410 kts | 308° |
| 2026-04-27 15:20 | 47.31530 | 8.63354 | 38130 ft | 411 kts | 308° |
| 2026-04-27 15:20 | 47.35227 | 8.56925 | 38132 ft | 411 kts | 308° |
| 2026-04-27 15:21 | 47.38892 | 8.50537 | 38127 ft | 410 kts | 308° |
| 2026-04-27 15:21 | 47.42577 | 8.44098 | 38135 ft | 411 kts | 308° |
| 2026-04-27 15:22 | 47.46258 | 8.37651 | 38110 ft | 411 kts | 308° |
| 2026-04-27 15:22 | 47.49941 | 8.31184 | 38100 ft | 412 kts | 308° |
| 2026-04-27 15:23 | 47.53629 | 8.24695 | 38109 ft | 412 kts | 307° |
| 2026-04-27 15:23 | 47.57307 | 8.18206 | 38110 ft | 412 kts | 307° |
| 2026-04-27 15:24 | 47.60986 | 8.11701 | 38116 ft | 412 kts | 307° |
| 2026-04-27 15:24 | 47.64659 | 8.05190 | 38111 ft | 411 kts | 307° |
| 2026-04-27 15:25 | 47.68328 | 7.98670 | 38105 ft | 412 kts | 307° |
| 2026-04-27 15:25 | 47.71997 | 7.92136 | 38111 ft | 412 kts | 307° |
| 2026-04-27 15:26 | 47.75664 | 7.85587 | 38098 ft | 412 kts | 307° |
| 2026-04-27 15:26 | 47.79324 | 7.79037 | 38112 ft | 412 kts | 307° |
| 2026-04-27 15:27 | 47.82982 | 7.72476 | 38098 ft | 412 kts | 307° |
| 2026-04-27 15:27 | 47.86631 | 7.65916 | 38097 ft | 412 kts | 307° |
| 2026-04-27 15:28 | 47.90374 | 7.59451 | 38086 ft | 414 kts | 316° |
| 2026-04-27 15:28 | 47.92781 | 7.57060 | 38111 ft | 419 kts | 327° |
| 2026-04-27 15:28 | 47.95333 | 7.54944 | 38083 ft | 421 kts | 327° |
| 2026-04-27 15:29 | 48.00482 | 7.50769 | 38114 ft | 422 kts | 328° |
| 2026-04-27 15:29 | 48.05665 | 7.46654 | 38101 ft | 422 kts | 328° |
| 2026-04-27 15:30 | 48.10849 | 7.42550 | 38104 ft | 422 kts | 328° |
| 2026-04-27 15:30 | 48.16032 | 7.38440 | 38102 ft | 422 kts | 328° |
| 2026-04-27 15:31 | 48.21212 | 7.34323 | 38123 ft | 422 kts | 328° |
| 2026-04-27 15:31 | 48.26400 | 7.30191 | 38107 ft | 422 kts | 328° |
| 2026-04-27 15:32 | 48.31586 | 7.26049 | 38110 ft | 422 kts | 328° |
| 2026-04-27 15:32 | 48.36768 | 7.21902 | 38123 ft | 422 kts | 328° |
| 2026-04-27 15:33 | 48.41960 | 7.17737 | 38112 ft | 422 kts | 327° |
| 2026-04-27 15:33 | 48.47143 | 7.13570 | 38126 ft | 422 kts | 327° |
| 2026-04-27 15:34 | 48.52326 | 7.09392 | 38125 ft | 422 kts | 327° |
| 2026-04-27 15:34 | 48.57472 | 7.05235 | 38121 ft | 422 kts | 327° |
| 2026-04-27 15:35 | 48.62660 | 7.01034 | 38132 ft | 422 kts | 327° |
| 2026-04-27 15:35 | 48.67842 | 6.96829 | 38127 ft | 422 kts | 327° |
| 2026-04-27 15:36 | 48.73023 | 6.92614 | 38131 ft | 423 kts | 327° |
| 2026-04-27 15:36 | 48.78209 | 6.88384 | 38133 ft | 423 kts | 327° |
| 2026-04-27 15:37 | 48.83391 | 6.84149 | 38133 ft | 423 kts | 327° |
| 2026-04-27 15:37 | 48.88540 | 6.79931 | 38153 ft | 423 kts | 327° |
| 2026-04-27 15:38 | 48.93725 | 6.75674 | 38134 ft | 424 kts | 327° |
| 2026-04-27 15:38 | 48.98952 | 6.71491 | 38126 ft | 426 kts | 333° |
| 2026-04-27 15:39 | 49.04419 | 6.67966 | 38137 ft | 426 kts | 332° |
| 2026-04-27 15:39 | 49.08934 | 6.64956 | 38139 ft | 426 kts | 332° |
| 2026-04-27 15:40 | 49.14369 | 6.61306 | 38146 ft | 427 kts | 332° |
| 2026-04-27 15:40 | 49.19807 | 6.57643 | 38145 ft | 427 kts | 332° |
| 2026-04-27 15:41 | 49.25267 | 6.54012 | 38143 ft | 428 kts | 332° |
| 2026-04-27 15:41 | 49.30724 | 6.50377 | 38144 ft | 428 kts | 332° |
| 2026-04-27 15:42 | 49.36180 | 6.46723 | 38159 ft | 427 kts | 331° |
| 2026-04-27 15:42 | 49.41555 | 6.42885 | 38157 ft | 426 kts | 330° |
| 2026-04-27 15:43 | 49.46941 | 6.39048 | 38153 ft | 428 kts | 333° |
| 2026-04-27 15:43 | 49.52431 | 6.35525 | 38152 ft | 427 kts | 333° |
| 2026-04-27 15:44 | 49.57906 | 6.31959 | 38182 ft | 427 kts | 332° |
| 2026-04-27 15:44 | 49.63379 | 6.28369 | 38153 ft | 427 kts | 332° |
| 2026-04-27 15:45 | 49.68830 | 6.24690 | 38144 ft | 428 kts | 332° |
| 2026-04-27 15:45 | 49.74277 | 6.21012 | 38162 ft | 428 kts | 332° |
| 2026-04-27 15:46 | 49.79724 | 6.17327 | 38172 ft | 428 kts | 332° |
| 2026-04-27 15:46 | 49.85118 | 6.13560 | 38152 ft | 425 kts | 324° |
| 2026-04-27 15:47 | 49.87409 | 6.10789 | 38185 ft | 416 kts | 313° |
| 2026-04-27 15:47 | 49.89571 | 6.07686 | 38128 ft | 419 kts | 314° |
| 2026-04-27 15:47 | 49.93821 | 6.01525 | 38165 ft | 419 kts | 313° |
| 2026-04-27 15:48 | 49.98003 | 5.95324 | 38163 ft | 418 kts | 313° |
| 2026-04-27 15:49 | 50.04293 | 5.85921 | 38168 ft | 418 kts | 313° |
| 2026-04-27 15:49 | 50.08488 | 5.79629 | 38172 ft | 420 kts | 312° |
| 2026-04-27 15:50 | 50.12697 | 5.73304 | 38172 ft | 420 kts | 312° |
| 2026-04-27 15:50 | 50.16903 | 5.66967 | 38176 ft | 420 kts | 312° |
| 2026-04-27 15:51 | 50.21102 | 5.60622 | 38177 ft | 420 kts | 312° |
| 2026-04-27 15:51 | 50.25301 | 5.54263 | 38178 ft | 420 kts | 312° |
| 2026-04-27 15:52 | 50.29498 | 5.47888 | 38214 ft | 421 kts | 312° |
| 2026-04-27 15:52 | 50.33707 | 5.41480 | 38181 ft | 422 kts | 312° |
| 2026-04-27 15:53 | 50.37922 | 5.35046 | 38185 ft | 422 kts | 312° |
| 2026-04-27 15:53 | 50.42123 | 5.28616 | 38190 ft | 422 kts | 312° |
| 2026-04-27 15:54 | 50.46325 | 5.22167 | 38185 ft | 422 kts | 312° |
| 2026-04-27 15:54 | 50.50519 | 5.15714 | 38084 ft | 422 kts | 311° |
| 2026-04-27 15:54 | 50.52609 | 5.12492 | 37830 ft | 420 kts | 311° |
| 2026-04-27 15:55 | 50.54693 | 5.09275 | 37596 ft | 419 kts | 311° |
| 2026-04-27 15:55 | 50.56072 | 5.07144 | 37433 ft | 419 kts | 311° |
| 2026-04-27 15:55 | 50.58849 | 5.02848 | 37112 ft | 419 kts | 311° |
| 2026-04-27 15:55 | 50.60897 | 4.99675 | 36879 ft | 418 kts | 311° |
| 2026-04-27 15:56 | 50.62971 | 4.96458 | 36648 ft | 418 kts | 311° |
| 2026-04-27 15:56 | 50.65063 | 4.93209 | 36418 ft | 417 kts | 310° |
| 2026-04-27 15:56 | 50.67133 | 4.89989 | 36179 ft | 417 kts | 310° |
| 2026-04-27 15:56 | 50.69169 | 4.86821 | 35971 ft | 417 kts | 310° |
| 2026-04-27 15:57 | 50.71258 | 4.83568 | 35740 ft | 416 kts | 310° |
| 2026-04-27 15:57 | 50.73292 | 4.80394 | 35508 ft | 416 kts | 310° |
| 2026-04-27 15:57 | 50.75346 | 4.77185 | 35297 ft | 416 kts | 310° |
| 2026-04-27 15:57 | 50.77399 | 4.73975 | 35074 ft | 415 kts | 310° |
| 2026-04-27 15:58 | 50.79435 | 4.70787 | 34506 ft | 411 kts | 309° |
| 2026-04-27 15:58 | 50.81487 | 4.67568 | 33349 ft | 420 kts | 309° |
| 2026-04-27 15:58 | 50.83580 | 4.64283 | 32235 ft | 427 kts | 309° |
| 2026-04-27 15:58 | 50.85689 | 4.60968 | 31437 ft | 427 kts | 309° |
| 2026-04-27 15:59 | 50.87787 | 4.57666 | 30781 ft | 423 kts | 309° |
| 2026-04-27 15:59 | 50.89839 | 4.54356 | 29878 ft | 421 kts | 305° |
| 2026-04-27 15:59 | 50.91454 | 4.50490 | 28666 ft | 421 kts | 296° |
| 2026-04-27 15:59 | 50.92990 | 4.46554 | 27935 ft | 418 kts | 298° |
| 2026-04-27 16:00 | 50.94517 | 4.42642 | 27137 ft | 415 kts | 297° |
| 2026-04-27 16:00 | 50.95533 | 4.40013 | 26647 ft | 413 kts | 297° |
| 2026-04-27 16:00 | 50.97549 | 4.34764 | 25695 ft | 425 kts | 298° |
| 2026-04-27 16:00 | 50.99088 | 4.30744 | 25025 ft | 427 kts | 298° |
| 2026-04-27 16:01 | 51.00629 | 4.26710 | 24337 ft | 427 kts | 298° |
| 2026-04-27 16:01 | 51.02162 | 4.22690 | 23629 ft | 424 kts | 298° |
| 2026-04-27 16:01 | 51.03677 | 4.18710 | 22849 ft | 419 kts | 298° |
| 2026-04-27 16:01 | 51.05173 | 4.14774 | 22147 ft | 414 kts | 298° |
| 2026-04-27 16:02 | 51.06653 | 4.10872 | 21494 ft | 409 kts | 298° |
| 2026-04-27 16:02 | 51.08113 | 4.07021 | 20845 ft | 405 kts | 298° |
| 2026-04-27 16:02 | 51.09558 | 4.03202 | 20183 ft | 402 kts | 298° |
| 2026-04-27 16:02 | 51.10992 | 3.99405 | 19544 ft | 399 kts | 298° |
| 2026-04-27 16:03 | 51.12417 | 3.95628 | 18892 ft | 397 kts | 298° |
| 2026-04-27 16:03 | 51.13818 | 3.91910 | 18218 ft | 395 kts | 298° |
| 2026-04-27 16:03 | 51.15223 | 3.88174 | 17533 ft | 393 kts | 298° |
| 2026-04-27 16:03 | 51.16623 | 3.84446 | 16892 ft | 390 kts | 298° |
| 2026-04-27 16:04 | 51.18009 | 3.80754 | 16268 ft | 387 kts | 299° |
| 2026-04-27 16:04 | 51.19383 | 3.77085 | 15649 ft | 384 kts | 299° |
| 2026-04-27 16:04 | 51.20747 | 3.73439 | 15035 ft | 382 kts | 299° |
| 2026-04-27 16:04 | 51.22101 | 3.69815 | 14448 ft | 380 kts | 299° |
| 2026-04-27 16:05 | 51.23450 | 3.66201 | 13828 ft | 379 kts | 299° |
| 2026-04-27 16:05 | 51.24800 | 3.62570 | 13047 ft | 380 kts | 300° |
| 2026-04-27 16:05 | 51.26146 | 3.58943 | 12430 ft | 379 kts | 299° |
| 2026-04-27 16:05 | 51.27476 | 3.55358 | 12053 ft | 371 kts | 300° |
| 2026-04-27 16:06 | 51.28731 | 3.51833 | 11789 ft | 359 kts | 293° |
| 2026-04-27 16:06 | 51.29312 | 3.48043 | 11539 ft | 348 kts | 273° |
| 2026-04-27 16:06 | 51.29398 | 3.44253 | 11402 ft | 335 kts | 272° |
| 2026-04-27 16:06 | 51.29480 | 3.40586 | 11230 ft | 325 kts | 272° |
| 2026-04-27 16:07 | 51.29550 | 3.37021 | 11057 ft | 316 kts | 272° |
| 2026-04-27 16:07 | 51.29611 | 3.33548 | 10809 ft | 309 kts | 271° |
| 2026-04-27 16:07 | 51.29667 | 3.30143 | 10534 ft | 304 kts | 271° |
| 2026-04-27 16:07 | 51.29721 | 3.26796 | 10339 ft | 297 kts | 271° |
| 2026-04-27 16:08 | 51.29771 | 3.23576 | 10195 ft | 283 kts | 271° |
| 2026-04-27 16:08 | 51.29817 | 3.20491 | 9985 ft | 273 kts | 271° |
| 2026-04-27 16:08 | 51.29862 | 3.17485 | 9655 ft | 268 kts | 271° |
| 2026-04-27 16:08 | 51.29905 | 3.14540 | 9369 ft | 264 kts | 271° |
| 2026-04-27 16:09 | 51.29953 | 3.11553 | 9082 ft | 274 kts | 272° |
| 2026-04-27 16:09 | 51.30027 | 3.05422 | 8483 ft | 279 kts | 272° |
| 2026-04-27 16:09 | 51.30056 | 3.02315 | 8175 ft | 280 kts | 272° |
| 2026-04-27 16:10 | 51.30034 | 2.96080 | 7535 ft | 279 kts | 262° |
| 2026-04-27 16:10 | 51.29039 | 2.90155 | 6948 ft | 276 kts | 257° |
| 2026-04-27 16:11 | 51.28563 | 2.87201 | 6642 ft | 274 kts | 257° |
| 2026-04-27 16:11 | 51.27576 | 2.81359 | 5993 ft | 268 kts | 257° |
| 2026-04-27 16:12 | 51.26569 | 2.75770 | 5432 ft | 255 kts | 256° |
| 2026-04-27 16:12 | 51.26097 | 2.73075 | 5151 ft | 249 kts | 257° |
| 2026-04-27 16:12 | 51.25188 | 2.67977 | 4806 ft | 229 kts | 257° |
| 2026-04-27 16:13 | 51.24754 | 2.65534 | 4715 ft | 229 kts | 257° |
| 2026-04-27 16:13 | 51.24034 | 2.60592 | 4509 ft | 227 kts | 262° |
| 2026-04-27 16:13 | 51.23730 | 2.58149 | 4435 ft | 220 kts | 262° |
| 2026-04-27 16:14 | 51.23120 | 2.53511 | 4119 ft | 209 kts | 259° |
| 2026-04-27 16:14 | 51.21189 | 2.50779 | 3868 ft | 191 kts | 184° |
| 2026-04-27 16:15 | 51.18789 | 2.51944 | 3789 ft | 180 kts | 133° |
| 2026-04-27 16:15 | 51.16994 | 2.54738 | 3802 ft | 181 kts | 133° |
| 2026-04-27 16:16 | 51.15865 | 2.57983 | 3488 ft | 167 kts | 84° |
| 2026-04-27 16:16 | 51.16108 | 2.61657 | 3072 ft | 167 kts | 76° |
| 2026-04-27 16:17 | 51.16604 | 2.65236 | 2634 ft | 165 kts | 72° |
| 2026-04-27 16:17 | 51.17129 | 2.68697 | 2198 ft | 155 kts | 73° |
| 2026-04-27 16:18 | 51.17631 | 2.72006 | 1761 ft | 152 kts | 72° |
| 2026-04-27 16:18 | 51.18107 | 2.75130 | 1385 ft | 141 kts | 70° |
| 2026-04-27 16:19 | 51.18338 | 2.76645 | 1206 ft | 140 kts | 72° |
| 2026-04-27 16:19 | 51.18566 | 2.78154 | 1024 ft | 139 kts | 71° |
| 2026-04-27 16:20 | 51.19238 | 2.82579 | 455 ft | 137 kts | 71° |
| 2026-04-27 16:20 | 51.19476 | 2.84037 | 267 ft | 135 kts | 72° |
| 2026-04-27 16:20 | 51.19902 | 2.86880 | 29 ft | 112 kts | 76° |
| 2026-04-27 16:21 | 51.20052 | 2.87856 | 25 ft | 70 kts | 76° |
| 2026-04-27 16:21 | 51.20311 | 2.89482 | 24 ft | 19 kts | 45° |
| 2026-04-27 16:22 | 51.20410 | 2.89625 | 25 ft | 20 kts | 42° |
| 2026-04-27 16:22 | 51.20435 | 2.89735 | 26 ft | 0 kts | 106° |
| 2026-04-27 16:24 | 51.20431 | 2.89748 | 25 ft | 4 kts | 120° |
| 2026-04-27 16:25 | 51.20319 | 2.89689 | 24 ft | 25 kts | 256° |
| 2026-04-27 16:25 | 51.20179 | 2.88760 | 27 ft | 45 kts | 256° |
| 2026-04-27 16:26 | 51.20180 | 2.88316 | 25 ft | 13 kts | 348° |
| 2026-04-27 16:26 | 51.20227 | 2.88264 | 25 ft | 3 kts | 302° |
| 2026-04-27 16:27 | 51.20256 | 2.88148 | 27 ft | 8 kts | 262° |
| 2026-04-27 16:27 | 51.20191 | 2.87715 | 26 ft | 18 kts | 257° |
| 2026-04-27 16:28 | 51.20124 | 2.87275 | 29 ft | 17 kts | 256° |
| 2026-04-27 16:28 | 51.20195 | 2.87144 | 25 ft | 12 kts | 347° |
| 2026-04-27 16:29 | 51.20302 | 2.86910 | 27 ft | 1 kts | 348° |
| 2026-04-27 16:30 | 51.20318 | 2.86903 | 27 ft | 0 kts | 347° |